sensor_id;sensor_type;location;lat;lon;timestamp;P1;durP1;ratioP1;P2;durP2;ratioP2
34134;SDS011;20410;55.578;12.968;2023-02-23T00:00:23;10.10;;;5.33;;
34134;SDS011;20410;55.578;12.968;2023-02-23T00:02:52;11.17;;;5.60;;
34134;SDS011;20410;55.578;12.968;2023-02-23T00:05:25;10.87;;;5.57;;
34134;SDS011;20410;55.578;12.968;2023-02-23T00:07:55;10.43;;;5.93;;
34134;SDS011;20410;55.578;12.968;2023-02-23T00:10:21;8.97;;;6.07;;
34134;SDS011;20410;55.578;12.968;2023-02-23T00:12:54;10.80;;;5.73;;
34134;SDS011;20410;55.578;12.968;2023-02-23T00:15:23;11.30;;;6.13;;
34134;SDS011;20410;55.578;12.968;2023-02-23T00:17:54;14.87;;;6.23;;
34134;SDS011;20410;55.578;12.968;2023-02-23T00:20:20;10.30;;;5.87;;
34134;SDS011;20410;55.578;12.968;2023-02-23T00:22:55;11.67;;;6.60;;
34134;SDS011;20410;55.578;12.968;2023-02-23T00:25:23;15.00;;;6.30;;
34134;SDS011;20410;55.578;12.968;2023-02-23T00:27:49;11.50;;;5.90;;
34134;SDS011;20410;55.578;12.968;2023-02-23T00:30:16;13.83;;;6.57;;
34134;SDS011;20410;55.578;12.968;2023-02-23T00:32:43;11.07;;;6.17;;
34134;SDS011;20410;55.578;12.968;2023-02-23T00:35:10;12.77;;;6.10;;
34134;SDS011;20410;55.578;12.968;2023-02-23T00:37:45;10.57;;;6.03;;
34134;SDS011;20410;55.578;12.968;2023-02-23T00:40:13;10.23;;;5.90;;
34134;SDS011;20410;55.578;12.968;2023-02-23T00:42:41;12.40;;;6.27;;
34134;SDS011;20410;55.578;12.968;2023-02-23T00:45:07;9.23;;;6.10;;
34134;SDS011;20410;55.578;12.968;2023-02-23T00:47:36;13.33;;;6.50;;
34134;SDS011;20410;55.578;12.968;2023-02-23T00:50:03;11.10;;;5.87;;
34134;SDS011;20410;55.578;12.968;2023-02-23T00:52:29;11.20;;;5.97;;
34134;SDS011;20410;55.578;12.968;2023-02-23T00:54:55;9.40;;;5.43;;
34134;SDS011;20410;55.578;12.968;2023-02-23T00:57:21;9.87;;;5.53;;
34134;SDS011;20410;55.578;12.968;2023-02-23T00:59:47;12.00;;;6.67;;
34134;SDS011;20410;55.578;12.968;2023-02-23T01:02:12;10.73;;;6.13;;
34134;SDS011;20410;55.578;12.968;2023-02-23T01:04:38;9.27;;;5.90;;
34134;SDS011;20410;55.578;12.968;2023-02-23T01:07:04;11.53;;;6.10;;
34134;SDS011;20410;55.578;12.968;2023-02-23T01:09:30;12.20;;;6.03;;
34134;SDS011;20410;55.578;12.968;2023-02-23T01:11:57;7.53;;;5.83;;
34134;SDS011;20410;55.578;12.968;2023-02-23T01:14:25;11.07;;;6.60;;
34134;SDS011;20410;55.578;12.968;2023-02-23T01:16:52;12.67;;;6.43;;
34134;SDS011;20410;55.578;12.968;2023-02-23T01:19:20;10.67;;;6.10;;
34134;SDS011;20410;55.578;12.968;2023-02-23T01:21:46;12.40;;;6.43;;
34134;SDS011;20410;55.578;12.968;2023-02-23T01:24:12;12.07;;;6.60;;
34134;SDS011;20410;55.578;12.968;2023-02-23T01:26:39;10.90;;;6.50;;
34134;SDS011;20410;55.578;12.968;2023-02-23T01:29:10;13.80;;;7.20;;
34134;SDS011;20410;55.578;12.968;2023-02-23T01:31:44;12.00;;;6.07;;
34134;SDS011;20410;55.578;12.968;2023-02-23T01:34:12;10.37;;;6.10;;
34134;SDS011;20410;55.578;12.968;2023-02-23T01:36:39;9.13;;;5.93;;
34134;SDS011;20410;55.578;12.968;2023-02-23T01:39:07;9.73;;;5.80;;
34134;SDS011;20410;55.578;12.968;2023-02-23T01:41:37;12.63;;;7.07;;
34134;SDS011;20410;55.578;12.968;2023-02-23T01:44:07;11.10;;;6.50;;
34134;SDS011;20410;55.578;12.968;2023-02-23T01:46:55;12.97;;;6.53;;
34134;SDS011;20410;55.578;12.968;2023-02-23T01:49:25;13.43;;;6.10;;
34134;SDS011;20410;55.578;12.968;2023-02-23T01:52:12;11.00;;;6.80;;
34134;SDS011;20410;55.578;12.968;2023-02-23T01:54:48;11.63;;;6.87;;
34134;SDS011;20410;55.578;12.968;2023-02-23T01:57:16;10.13;;;6.87;;
34134;SDS011;20410;55.578;12.968;2023-02-23T01:59:45;15.33;;;6.80;;
34134;SDS011;20410;55.578;12.968;2023-02-23T02:02:13;11.97;;;6.07;;
34134;SDS011;20410;55.578;12.968;2023-02-23T02:04:41;13.00;;;6.90;;
34134;SDS011;20410;55.578;12.968;2023-02-23T02:07:11;11.10;;;6.90;;
34134;SDS011;20410;55.578;12.968;2023-02-23T02:09:42;10.27;;;6.13;;
34134;SDS011;20410;55.578;12.968;2023-02-23T02:12:28;14.17;;;7.17;;
34134;SDS011;20410;55.578;12.968;2023-02-23T02:14:54;13.13;;;6.97;;
34134;SDS011;20410;55.578;12.968;2023-02-23T02:25:45;14.83;;;7.73;;
34134;SDS011;20410;55.578;12.968;2023-02-23T02:47:28;12.17;;;8.17;;
34134;SDS011;20410;55.578;12.968;2023-02-23T02:52:38;14.97;;;8.70;;
34134;SDS011;20410;55.578;12.968;2023-02-23T02:55:23;17.93;;;8.97;;
34134;SDS011;20410;55.578;12.968;2023-02-23T02:57:52;12.80;;;8.87;;
34134;SDS011;20410;55.578;12.968;2023-02-23T03:00:40;13.77;;;8.90;;
34134;SDS011;20410;55.578;12.968;2023-02-23T03:03:32;13.13;;;8.50;;
34134;SDS011;20410;55.578;12.968;2023-02-23T03:06:21;14.80;;;9.80;;
34134;SDS011;20410;55.578;12.968;2023-02-23T03:12:30;14.03;;;9.80;;
34134;SDS011;20410;55.578;12.968;2023-02-23T03:21:24;15.03;;;9.60;;
34134;SDS011;20410;55.578;12.968;2023-02-23T03:27:22;18.87;;;10.50;;
34134;SDS011;20410;55.578;12.968;2023-02-23T03:30:20;16.67;;;9.73;;
34134;SDS011;20410;55.578;12.968;2023-02-23T03:33:14;16.30;;;10.50;;
34134;SDS011;20410;55.578;12.968;2023-02-23T03:36:22;16.33;;;10.40;;
34134;SDS011;20410;55.578;12.968;2023-02-23T03:41:59;17.63;;;11.10;;
34134;SDS011;20410;55.578;12.968;2023-02-23T03:44:46;14.97;;;9.90;;
34134;SDS011;20410;55.578;12.968;2023-02-23T03:47:33;14.60;;;10.60;;
34134;SDS011;20410;55.578;12.968;2023-02-23T03:50:23;17.07;;;10.80;;
34134;SDS011;20410;55.578;12.968;2023-02-23T03:53:20;15.80;;;11.10;;
34134;SDS011;20410;55.578;12.968;2023-02-23T03:56:09;18.43;;;11.53;;
34134;SDS011;20410;55.578;12.968;2023-02-23T03:58:58;16.37;;;10.97;;
34134;SDS011;20410;55.578;12.968;2023-02-23T04:01:46;20.73;;;10.80;;
34134;SDS011;20410;55.578;12.968;2023-02-23T04:04:34;14.40;;;10.93;;
34134;SDS011;20410;55.578;12.968;2023-02-23T04:07:19;15.30;;;11.50;;
34134;SDS011;20410;55.578;12.968;2023-02-23T04:10:04;16.07;;;11.23;;
34134;SDS011;20410;55.578;12.968;2023-02-23T04:15:40;18.87;;;10.93;;
34134;SDS011;20410;55.578;12.968;2023-02-23T04:18:12;17.63;;;10.50;;
34134;SDS011;20410;55.578;12.968;2023-02-23T04:20:40;14.93;;;11.03;;
34134;SDS011;20410;55.578;12.968;2023-02-23T04:23:06;18.57;;;11.37;;
34134;SDS011;20410;55.578;12.968;2023-02-23T04:25:31;20.93;;;11.60;;
34134;SDS011;20410;55.578;12.968;2023-02-23T04:27:57;16.97;;;10.50;;
34134;SDS011;20410;55.578;12.968;2023-02-23T04:30:22;17.87;;;10.73;;
34134;SDS011;20410;55.578;12.968;2023-02-23T04:32:52;16.87;;;11.40;;
34134;SDS011;20410;55.578;12.968;2023-02-23T04:35:18;18.30;;;11.47;;
34134;SDS011;20410;55.578;12.968;2023-02-23T04:37:44;15.50;;;10.80;;
34134;SDS011;20410;55.578;12.968;2023-02-23T04:40:10;16.80;;;10.87;;
34134;SDS011;20410;55.578;12.968;2023-02-23T04:42:39;18.67;;;10.93;;
34134;SDS011;20410;55.578;12.968;2023-02-23T04:45:05;16.27;;;11.00;;
34134;SDS011;20410;55.578;12.968;2023-02-23T04:47:31;16.07;;;11.33;;
34134;SDS011;20410;55.578;12.968;2023-02-23T04:49:57;18.40;;;10.87;;
34134;SDS011;20410;55.578;12.968;2023-02-23T04:52:22;15.93;;;11.07;;
34134;SDS011;20410;55.578;12.968;2023-02-23T04:54:48;17.90;;;10.90;;
34134;SDS011;20410;55.578;12.968;2023-02-23T04:57:14;18.40;;;10.90;;
34134;SDS011;20410;55.578;12.968;2023-02-23T04:59:39;14.80;;;10.80;;
34134;SDS011;20410;55.578;12.968;2023-02-23T05:02:05;16.17;;;11.47;;
34134;SDS011;20410;55.578;12.968;2023-02-23T05:04:31;18.57;;;12.27;;
34134;SDS011;20410;55.578;12.968;2023-02-23T05:07:00;17.53;;;11.13;;
34134;SDS011;20410;55.578;12.968;2023-02-23T05:09:27;17.10;;;11.47;;
34134;SDS011;20410;55.578;12.968;2023-02-23T05:11:53;16.90;;;11.27;;
34134;SDS011;20410;55.578;12.968;2023-02-23T05:14:19;18.63;;;12.03;;
34134;SDS011;20410;55.578;12.968;2023-02-23T05:16:45;17.43;;;11.23;;
34134;SDS011;20410;55.578;12.968;2023-02-23T05:19:10;17.77;;;11.93;;
34134;SDS011;20410;55.578;12.968;2023-02-23T05:21:36;16.77;;;11.83;;
34134;SDS011;20410;55.578;12.968;2023-02-23T05:24:02;18.43;;;11.97;;
34134;SDS011;20410;55.578;12.968;2023-02-23T05:26:29;19.70;;;11.03;;
34134;SDS011;20410;55.578;12.968;2023-02-23T05:28:54;18.60;;;10.97;;
34134;SDS011;20410;55.578;12.968;2023-02-23T05:31:21;17.43;;;11.50;;
34134;SDS011;20410;55.578;12.968;2023-02-23T05:33:47;18.63;;;12.23;;
34134;SDS011;20410;55.578;12.968;2023-02-23T05:36:14;18.53;;;11.73;;
34134;SDS011;20410;55.578;12.968;2023-02-23T05:38:42;17.17;;;11.70;;
34134;SDS011;20410;55.578;12.968;2023-02-23T05:41:17;19.60;;;11.10;;
34134;SDS011;20410;55.578;12.968;2023-02-23T05:43:44;21.27;;;12.03;;
34134;SDS011;20410;55.578;12.968;2023-02-23T05:46:11;21.00;;;12.47;;
34134;SDS011;20410;55.578;12.968;2023-02-23T05:48:40;18.80;;;12.10;;
34134;SDS011;20410;55.578;12.968;2023-02-23T05:51:07;20.10;;;12.23;;
34134;SDS011;20410;55.578;12.968;2023-02-23T05:53:35;21.37;;;11.90;;
34134;SDS011;20410;55.578;12.968;2023-02-23T05:56:01;19.70;;;12.53;;
34134;SDS011;20410;55.578;12.968;2023-02-23T05:58:28;17.83;;;11.30;;
34134;SDS011;20410;55.578;12.968;2023-02-23T06:00:54;18.47;;;12.63;;
34134;SDS011;20410;55.578;12.968;2023-02-23T06:03:20;19.00;;;12.03;;
34134;SDS011;20410;55.578;12.968;2023-02-23T06:05:53;18.20;;;12.07;;
34134;SDS011;20410;55.578;12.968;2023-02-23T06:08:21;22.57;;;12.90;;
34134;SDS011;20410;55.578;12.968;2023-02-23T06:10:48;16.00;;;11.43;;
34134;SDS011;20410;55.578;12.968;2023-02-23T06:13:14;22.17;;;12.67;;
34134;SDS011;20410;55.578;12.968;2023-02-23T06:15:40;21.10;;;12.87;;
34134;SDS011;20410;55.578;12.968;2023-02-23T06:18:06;21.03;;;11.67;;
34134;SDS011;20410;55.578;12.968;2023-02-23T06:20:33;20.10;;;12.87;;
34134;SDS011;20410;55.578;12.968;2023-02-23T06:22:59;23.83;;;13.47;;
34134;SDS011;20410;55.578;12.968;2023-02-23T06:25:25;18.63;;;13.50;;
34134;SDS011;20410;55.578;12.968;2023-02-23T06:27:50;19.07;;;13.50;;
34134;SDS011;20410;55.578;12.968;2023-02-23T06:30:16;19.27;;;13.87;;
34134;SDS011;20410;55.578;12.968;2023-02-23T06:32:42;16.73;;;13.00;;
34134;SDS011;20410;55.578;12.968;2023-02-23T06:35:08;20.87;;;13.03;;
34134;SDS011;20410;55.578;12.968;2023-02-23T06:37:34;19.13;;;13.37;;
34134;SDS011;20410;55.578;12.968;2023-02-23T06:40:00;21.93;;;13.63;;
34134;SDS011;20410;55.578;12.968;2023-02-23T06:42:27;19.67;;;13.23;;
34134;SDS011;20410;55.578;12.968;2023-02-23T06:44:53;24.67;;;14.73;;
34134;SDS011;20410;55.578;12.968;2023-02-23T06:47:18;21.67;;;14.43;;
34134;SDS011;20410;55.578;12.968;2023-02-23T06:49:44;21.27;;;14.83;;
34134;SDS011;20410;55.578;12.968;2023-02-23T06:52:10;22.23;;;13.60;;
34134;SDS011;20410;55.578;12.968;2023-02-23T06:54:37;22.30;;;13.87;;
34134;SDS011;20410;55.578;12.968;2023-02-23T06:57:04;20.17;;;13.93;;
34134;SDS011;20410;55.578;12.968;2023-02-23T06:59:30;20.30;;;13.43;;
34134;SDS011;20410;55.578;12.968;2023-02-23T07:01:56;23.33;;;14.00;;
34134;SDS011;20410;55.578;12.968;2023-02-23T07:04:21;21.43;;;14.97;;
34134;SDS011;20410;55.578;12.968;2023-02-23T07:06:47;26.83;;;14.97;;
34134;SDS011;20410;55.578;12.968;2023-02-23T07:09:13;22.03;;;14.43;;
34134;SDS011;20410;55.578;12.968;2023-02-23T07:11:39;21.60;;;14.63;;
34134;SDS011;20410;55.578;12.968;2023-02-23T07:14:05;19.30;;;14.80;;
34134;SDS011;20410;55.578;12.968;2023-02-23T07:16:31;23.30;;;15.27;;
34134;SDS011;20410;55.578;12.968;2023-02-23T07:18:57;25.57;;;15.83;;
34134;SDS011;20410;55.578;12.968;2023-02-23T07:21:22;23.17;;;13.87;;
34134;SDS011;20410;55.578;12.968;2023-02-23T07:23:48;22.00;;;15.10;;
34134;SDS011;20410;55.578;12.968;2023-02-23T07:26:14;22.87;;;15.80;;
34134;SDS011;20410;55.578;12.968;2023-02-23T07:28:41;21.07;;;16.00;;
34134;SDS011;20410;55.578;12.968;2023-02-23T07:31:07;22.97;;;15.93;;
34134;SDS011;20410;55.578;12.968;2023-02-23T07:33:32;21.87;;;15.03;;
34134;SDS011;20410;55.578;12.968;2023-02-23T07:35:58;21.13;;;16.00;;
34134;SDS011;20410;55.578;12.968;2023-02-23T07:38:24;21.10;;;15.03;;
34134;SDS011;20410;55.578;12.968;2023-02-23T07:40:50;28.53;;;16.83;;
34134;SDS011;20410;55.578;12.968;2023-02-23T07:43:15;23.50;;;16.20;;
34134;SDS011;20410;55.578;12.968;2023-02-23T07:45:41;23.63;;;16.20;;
34134;SDS011;20410;55.578;12.968;2023-02-23T07:48:07;27.60;;;16.23;;
34134;SDS011;20410;55.578;12.968;2023-02-23T07:50:33;21.10;;;15.20;;
34134;SDS011;20410;55.578;12.968;2023-02-23T07:52:59;23.53;;;16.10;;
34134;SDS011;20410;55.578;12.968;2023-02-23T07:55:25;23.73;;;16.60;;
34134;SDS011;20410;55.578;12.968;2023-02-23T07:57:51;22.80;;;14.87;;
34134;SDS011;20410;55.578;12.968;2023-02-23T08:00:17;23.33;;;15.43;;
34134;SDS011;20410;55.578;12.968;2023-02-23T08:02:43;18.83;;;14.80;;
34134;SDS011;20410;55.578;12.968;2023-02-23T08:05:08;20.17;;;15.67;;
34134;SDS011;20410;55.578;12.968;2023-02-23T08:07:34;21.90;;;14.57;;
34134;SDS011;20410;55.578;12.968;2023-02-23T08:10:00;22.13;;;14.90;;
34134;SDS011;20410;55.578;12.968;2023-02-23T08:12:26;26.93;;;17.33;;
34134;SDS011;20410;55.578;12.968;2023-02-23T08:14:51;23.20;;;15.70;;
34134;SDS011;20410;55.578;12.968;2023-02-23T08:17:18;24.37;;;16.03;;
34134;SDS011;20410;55.578;12.968;2023-02-23T08:19:43;22.20;;;15.47;;
34134;SDS011;20410;55.578;12.968;2023-02-23T08:22:09;21.37;;;15.17;;
34134;SDS011;20410;55.578;12.968;2023-02-23T08:24:34;19.43;;;15.13;;
34134;SDS011;20410;55.578;12.968;2023-02-23T08:27:01;22.20;;;14.47;;
34134;SDS011;20410;55.578;12.968;2023-02-23T08:29:27;21.87;;;14.77;;
34134;SDS011;20410;55.578;12.968;2023-02-23T08:31:53;20.97;;;15.97;;
34134;SDS011;20410;55.578;12.968;2023-02-23T08:34:20;18.87;;;13.77;;
34134;SDS011;20410;55.578;12.968;2023-02-23T08:36:46;24.03;;;15.50;;
34134;SDS011;20410;55.578;12.968;2023-02-23T08:39:12;19.50;;;14.17;;
34134;SDS011;20410;55.578;12.968;2023-02-23T08:41:39;20.30;;;14.70;;
34134;SDS011;20410;55.578;12.968;2023-02-23T08:44:05;23.83;;;15.63;;
34134;SDS011;20410;55.578;12.968;2023-02-23T08:46:32;21.27;;;15.47;;
34134;SDS011;20410;55.578;12.968;2023-02-23T08:48:58;24.20;;;15.03;;
34134;SDS011;20410;55.578;12.968;2023-02-23T08:51:24;22.90;;;14.77;;
34134;SDS011;20410;55.578;12.968;2023-02-23T08:53:50;20.50;;;15.63;;
34134;SDS011;20410;55.578;12.968;2023-02-23T08:56:15;23.10;;;15.70;;
34134;SDS011;20410;55.578;12.968;2023-02-23T08:58:41;24.60;;;16.60;;
34134;SDS011;20410;55.578;12.968;2023-02-23T09:01:13;25.60;;;16.13;;
34134;SDS011;20410;55.578;12.968;2023-02-23T09:03:41;21.83;;;15.07;;
34134;SDS011;20410;55.578;12.968;2023-02-23T09:06:08;22.87;;;15.07;;
34134;SDS011;20410;55.578;12.968;2023-02-23T09:08:37;21.53;;;15.27;;
34134;SDS011;20410;55.578;12.968;2023-02-23T09:11:03;24.30;;;15.00;;
34134;SDS011;20410;55.578;12.968;2023-02-23T09:13:29;22.47;;;15.30;;
34134;SDS011;20410;55.578;12.968;2023-02-23T09:15:55;19.50;;;14.87;;
34134;SDS011;20410;55.578;12.968;2023-02-23T09:18:21;21.50;;;15.60;;
34134;SDS011;20410;55.578;12.968;2023-02-23T09:20:47;21.97;;;15.63;;
34134;SDS011;20410;55.578;12.968;2023-02-23T09:23:13;25.17;;;17.90;;
34134;SDS011;20410;55.578;12.968;2023-02-23T09:25:40;23.27;;;16.10;;
34134;SDS011;20410;55.578;12.968;2023-02-23T09:28:07;24.23;;;16.40;;
34134;SDS011;20410;55.578;12.968;2023-02-23T09:30:37;23.23;;;15.80;;
34134;SDS011;20410;55.578;12.968;2023-02-23T09:33:04;21.40;;;15.30;;
34134;SDS011;20410;55.578;12.968;2023-02-23T09:35:31;20.93;;;15.67;;
34134;SDS011;20410;55.578;12.968;2023-02-23T09:37:58;27.03;;;16.10;;
34134;SDS011;20410;55.578;12.968;2023-02-23T09:40:25;24.60;;;15.80;;
34134;SDS011;20410;55.578;12.968;2023-02-23T09:42:57;22.60;;;15.40;;
34134;SDS011;20410;55.578;12.968;2023-02-23T09:45:47;22.63;;;16.17;;
34134;SDS011;20410;55.578;12.968;2023-02-23T09:48:26;21.37;;;14.50;;
34134;SDS011;20410;55.578;12.968;2023-02-23T09:50:54;23.63;;;16.17;;
34134;SDS011;20410;55.578;12.968;2023-02-23T09:55:53;22.77;;;15.73;;
34134;SDS011;20410;55.578;12.968;2023-02-23T09:58:30;26.03;;;16.33;;
34134;SDS011;20410;55.578;12.968;2023-02-23T10:03:49;22.67;;;16.43;;
34134;SDS011;20410;55.578;12.968;2023-02-23T10:06:20;22.90;;;15.70;;
34134;SDS011;20410;55.578;12.968;2023-02-23T10:11:32;24.07;;;17.47;;
34134;SDS011;20410;55.578;12.968;2023-02-23T10:22:54;24.67;;;16.27;;
34134;SDS011;20410;55.578;12.968;2023-02-23T10:25:26;24.57;;;16.87;;
34134;SDS011;20410;55.578;12.968;2023-02-23T10:27:54;24.07;;;18.37;;
34134;SDS011;20410;55.578;12.968;2023-02-23T10:32:49;23.60;;;17.47;;
34134;SDS011;20410;55.578;12.968;2023-02-23T10:35:17;24.70;;;18.17;;
34134;SDS011;20410;55.578;12.968;2023-02-23T10:37:47;24.60;;;19.20;;
34134;SDS011;20410;55.578;12.968;2023-02-23T10:40:16;27.43;;;18.73;;
34134;SDS011;20410;55.578;12.968;2023-02-23T10:42:45;25.90;;;18.33;;
34134;SDS011;20410;55.578;12.968;2023-02-23T10:45:11;27.47;;;18.27;;
34134;SDS011;20410;55.578;12.968;2023-02-23T10:47:42;25.77;;;18.77;;
34134;SDS011;20410;55.578;12.968;2023-02-23T10:50:09;27.13;;;18.27;;
34134;SDS011;20410;55.578;12.968;2023-02-23T10:52:41;28.00;;;18.13;;
34134;SDS011;20410;55.578;12.968;2023-02-23T10:55:29;27.23;;;19.60;;
34134;SDS011;20410;55.578;12.968;2023-02-23T10:58:00;25.77;;;17.83;;
34134;SDS011;20410;55.578;12.968;2023-02-23T11:00:27;28.30;;;21.02;;
34134;SDS011;20410;55.578;12.968;2023-02-23T11:02:57;29.40;;;20.97;;
34134;SDS011;20410;55.578;12.968;2023-02-23T11:05:29;26.90;;;19.90;;
34134;SDS011;20410;55.578;12.968;2023-02-23T11:08:09;24.67;;;18.87;;
34134;SDS011;20410;55.578;12.968;2023-02-23T11:13:45;25.97;;;19.30;;
34134;SDS011;20410;55.578;12.968;2023-02-23T11:16:14;28.57;;;20.00;;
34134;SDS011;20410;55.578;12.968;2023-02-23T11:19:03;26.53;;;19.03;;
34134;SDS011;20410;55.578;12.968;2023-02-23T11:21:33;26.90;;;19.80;;
34134;SDS011;20410;55.578;12.968;2023-02-23T11:24:18;31.57;;;20.90;;
34134;SDS011;20410;55.578;12.968;2023-02-23T11:26:47;29.00;;;19.87;;
34134;SDS011;20410;55.578;12.968;2023-02-23T11:29:20;28.10;;;20.50;;
34134;SDS011;20410;55.578;12.968;2023-02-23T11:31:59;24.67;;;20.47;;
34134;SDS011;20410;55.578;12.968;2023-02-23T11:34:47;27.50;;;21.00;;
34134;SDS011;20410;55.578;12.968;2023-02-23T11:37:37;24.23;;;19.87;;
34134;SDS011;20410;55.578;12.968;2023-02-23T11:40:16;26.03;;;19.53;;
34134;SDS011;20410;55.578;12.968;2023-02-23T11:45:30;29.63;;;20.00;;
34134;SDS011;20410;55.578;12.968;2023-02-23T11:48:01;26.67;;;19.67;;
34134;SDS011;20410;55.578;12.968;2023-02-23T11:50:29;33.67;;;23.27;;
34134;SDS011;20410;55.578;12.968;2023-02-23T11:55:39;30.63;;;20.77;;
34134;SDS011;20410;55.578;12.968;2023-02-23T11:58:22;27.23;;;19.67;;
34134;SDS011;20410;55.578;12.968;2023-02-23T12:01:03;28.50;;;20.57;;
34134;SDS011;20410;55.578;12.968;2023-02-23T12:03:38;30.00;;;20.70;;
34134;SDS011;20410;55.578;12.968;2023-02-23T12:06:29;27.73;;;19.93;;
34134;SDS011;20410;55.578;12.968;2023-02-23T12:08:59;28.87;;;20.80;;
34134;SDS011;20410;55.578;12.968;2023-02-23T12:11:35;31.13;;;22.27;;
34134;SDS011;20410;55.578;12.968;2023-02-23T12:14:15;27.83;;;20.67;;
34134;SDS011;20410;55.578;12.968;2023-02-23T12:16:58;28.67;;;20.07;;
34134;SDS011;20410;55.578;12.968;2023-02-23T12:19:50;31.83;;;21.60;;
34134;SDS011;20410;55.578;12.968;2023-02-23T12:22:24;31.33;;;21.70;;
34134;SDS011;20410;55.578;12.968;2023-02-23T12:25:26;28.30;;;21.03;;
34134;SDS011;20410;55.578;12.968;2023-02-23T12:28:01;30.00;;;19.90;;
34134;SDS011;20410;55.578;12.968;2023-02-23T12:30:50;29.67;;;21.00;;
34134;SDS011;20410;55.578;12.968;2023-02-23T12:33:30;30.93;;;20.63;;
34134;SDS011;20410;55.578;12.968;2023-02-23T12:36:22;27.83;;;20.43;;
34134;SDS011;20410;55.578;12.968;2023-02-23T12:41:57;26.37;;;18.73;;
34134;SDS011;20410;55.578;12.968;2023-02-23T12:44:33;31.63;;;19.93;;
34134;SDS011;20410;55.578;12.968;2023-02-23T12:47:01;28.73;;;19.47;;
34134;SDS011;20410;55.578;12.968;2023-02-23T12:49:40;27.90;;;20.07;;
34134;SDS011;20410;55.578;12.968;2023-02-23T12:54:38;31.17;;;20.13;;
34134;SDS011;20410;55.578;12.968;2023-02-23T13:02:21;35.67;;;22.77;;
34134;SDS011;20410;55.578;12.968;2023-02-23T13:13:56;38.30;;;22.50;;
34134;SDS011;20410;55.578;12.968;2023-02-23T13:16:33;32.67;;;19.80;;
34134;SDS011;20410;55.578;12.968;2023-02-23T13:19:17;36.07;;;22.80;;
34134;SDS011;20410;55.578;12.968;2023-02-23T13:24:45;35.90;;;23.90;;
34134;SDS011;20410;55.578;12.968;2023-02-23T13:29:59;40.83;;;23.43;;
34134;SDS011;20410;55.578;12.968;2023-02-23T13:32:26;35.23;;;23.50;;
34134;SDS011;20410;55.578;12.968;2023-02-23T13:34:59;34.33;;;22.10;;
34134;SDS011;20410;55.578;12.968;2023-02-23T13:37:49;44.20;;;24.83;;
34134;SDS011;20410;55.578;12.968;2023-02-23T13:40:45;35.33;;;21.47;;
34134;SDS011;20410;55.578;12.968;2023-02-23T13:46:04;34.17;;;21.93;;
34134;SDS011;20410;55.578;12.968;2023-02-23T13:51:07;45.10;;;23.90;;
34134;SDS011;20410;55.578;12.968;2023-02-23T13:56:21;48.97;;;26.77;;
34134;SDS011;20410;55.578;12.968;2023-02-23T13:58:57;62.07;;;29.57;;
34134;SDS011;20410;55.578;12.968;2023-02-23T14:01:29;57.80;;;27.13;;
34134;SDS011;20410;55.578;12.968;2023-02-23T14:03:56;48.93;;;26.37;;
34134;SDS011;20410;55.578;12.968;2023-02-23T14:06:36;77.10;;;28.70;;
34134;SDS011;20410;55.578;12.968;2023-02-23T14:09:12;100.23;;;29.40;;
34134;SDS011;20410;55.578;12.968;2023-02-23T14:11:51;140.07;;;34.50;;
34134;SDS011;20410;55.578;12.968;2023-02-23T14:22:15;99.83;;;29.10;;
34134;SDS011;20410;55.578;12.968;2023-02-23T14:24:45;96.73;;;28.80;;
34134;SDS011;20410;55.578;12.968;2023-02-23T14:27:32;117.67;;;29.80;;
34134;SDS011;20410;55.578;12.968;2023-02-23T14:32:41;107.17;;;32.13;;
34134;SDS011;20410;55.578;12.968;2023-02-23T14:38:08;92.33;;;29.63;;
34134;SDS011;20410;55.578;12.968;2023-02-23T14:40:39;122.10;;;30.43;;
34134;SDS011;20410;55.578;12.968;2023-02-23T14:46:13;140.97;;;29.80;;
34134;SDS011;20410;55.578;12.968;2023-02-23T14:48:44;118.23;;;28.87;;
34134;SDS011;20410;55.578;12.968;2023-02-23T14:51:23;118.93;;;29.37;;
34134;SDS011;20410;55.578;12.968;2023-02-23T14:54:10;157.70;;;33.50;;
34134;SDS011;20410;55.578;12.968;2023-02-23T14:56:44;112.90;;;28.90;;
34134;SDS011;20410;55.578;12.968;2023-02-23T14:59:14;96.33;;;27.83;;
34134;SDS011;20410;55.578;12.968;2023-02-23T15:01:44;103.33;;;29.23;;
34134;SDS011;20410;55.578;12.968;2023-02-23T15:04:22;115.93;;;28.57;;
34134;SDS011;20410;55.578;12.968;2023-02-23T15:06:51;143.77;;;31.43;;
34134;SDS011;20410;55.578;12.968;2023-02-23T15:09:22;80.23;;;28.27;;
34134;SDS011;20410;55.578;12.968;2023-02-23T15:11:54;106.97;;;27.37;;
34134;SDS011;20410;55.578;12.968;2023-02-23T15:14:21;127.10;;;29.63;;
34134;SDS011;20410;55.578;12.968;2023-02-23T15:16:48;171.97;;;33.10;;
34134;SDS011;20410;55.578;12.968;2023-02-23T15:19:16;125.87;;;30.47;;
34134;SDS011;20410;55.578;12.968;2023-02-23T15:21:54;164.30;;;32.30;;
34134;SDS011;20410;55.578;12.968;2023-02-23T15:24:26;273.73;;;40.97;;
34134;SDS011;20410;55.578;12.968;2023-02-23T15:26:54;114.90;;;29.63;;
34134;SDS011;20410;55.578;12.968;2023-02-23T15:29:22;117.43;;;33.53;;
34134;SDS011;20410;55.578;12.968;2023-02-23T15:31:53;142.50;;;32.07;;
34134;SDS011;20410;55.578;12.968;2023-02-23T15:34:26;179.27;;;34.33;;
34134;SDS011;20410;55.578;12.968;2023-02-23T15:37:01;228.67;;;37.13;;
34134;SDS011;20410;55.578;12.968;2023-02-23T15:39:33;102.37;;;26.17;;
34134;SDS011;20410;55.578;12.968;2023-02-23T15:42:01;100.73;;;31.27;;
34134;SDS011;20410;55.578;12.968;2023-02-23T15:44:28;229.40;;;35.17;;
34134;SDS011;20410;55.578;12.968;2023-02-23T15:47:00;185.53;;;31.23;;
34134;SDS011;20410;55.578;12.968;2023-02-23T15:49:35;240.03;;;36.63;;
34134;SDS011;20410;55.578;12.968;2023-02-23T15:52:08;140.30;;;30.97;;
34134;SDS011;20410;55.578;12.968;2023-02-23T16:00:59;292.43;;;38.47;;
34134;SDS011;20410;55.578;12.968;2023-02-23T16:03:07;167.67;;;31.00;;
34134;SDS011;20410;55.578;12.968;2023-02-23T16:06:22;146.57;;;34.00;;
34134;SDS011;20410;55.578;12.968;2023-02-23T16:09:45;241.33;;;38.93;;
34134;SDS011;20410;55.578;12.968;2023-02-23T16:11:55;174.97;;;33.43;;
34134;SDS011;20410;55.578;12.968;2023-02-23T16:14:27;135.53;;;31.13;;
34134;SDS011;20410;55.578;12.968;2023-02-23T16:22:50;96.23;;;32.07;;
34134;SDS011;20410;55.578;12.968;2023-02-23T16:25:18;81.50;;;29.67;;
34134;SDS011;20410;55.578;12.968;2023-02-23T16:27:46;238.90;;;42.37;;
34134;SDS011;20410;55.578;12.968;2023-02-23T16:30:27;245.43;;;43.57;;
34134;SDS011;20410;55.578;12.968;2023-02-23T16:33:05;134.23;;;34.07;;
34134;SDS011;20410;55.578;12.968;2023-02-23T16:35:46;96.80;;;33.27;;
34134;SDS011;20410;55.578;12.968;2023-02-23T16:38:19;173.97;;;38.27;;
34134;SDS011;20410;55.578;12.968;2023-02-23T16:40:51;175.57;;;35.80;;
34134;SDS011;20410;55.578;12.968;2023-02-23T16:43:18;180.37;;;39.80;;
34134;SDS011;20410;55.578;12.968;2023-02-23T16:45:44;101.83;;;36.27;;
34134;SDS011;20410;55.578;12.968;2023-02-23T16:48:13;135.07;;;34.83;;
34134;SDS011;20410;55.578;12.968;2023-02-23T16:50:41;120.30;;;38.60;;
34134;SDS011;20410;55.578;12.968;2023-02-23T16:53:09;185.47;;;43.10;;